createdAt,value
2023-04-13T00:00:22.853Z,98386.75
2023-04-13T00:01:56.177Z,98380.88
2023-04-13T00:03:33.399Z,98382.59
2023-04-13T00:05:09.444Z,98379.06
2023-04-13T00:06:43.109Z,98376.00
2023-04-13T00:08:17.247Z,98366.31
2023-04-13T00:09:52.065Z,98384.16
2023-04-13T00:11:27.947Z,98381.19
2023-04-13T00:13:02.348Z,98379.69
2023-04-13T00:14:35.619Z,98375.47
2023-04-13T00:16:09.858Z,98379.22
2023-04-13T00:17:43.173Z,98381.13
2023-04-13T00:19:17.795Z,98387.94
2023-04-13T00:20:51.030Z,98381.88
2023-04-13T00:22:23.816Z,98382.06
2023-04-13T00:23:57.494Z,98382.31
2023-04-13T00:25:31.516Z,98378.34
2023-04-13T00:27:05.180Z,98387.25
2023-04-13T00:28:38.577Z,98386.53
2023-04-13T00:30:13.470Z,98386.53
2023-04-13T00:31:46.889Z,98389.19
2023-04-13T00:33:20.146Z,98387.69
2023-04-13T00:34:54.191Z,98376.66
2023-04-13T00:36:27.911Z,98386.81
2023-04-13T00:38:04.672Z,98376.56
2023-04-13T00:39:37.984Z,98386.19
2023-04-13T00:41:13.117Z,98383.72
2023-04-13T00:42:46.316Z,98388.97
2023-04-13T00:44:20.372Z,98390.81
2023-04-13T00:45:53.753Z,98391.66
2023-04-13T00:47:32.458Z,98390.97
2023-04-13T00:49:05.785Z,98392.72
2023-04-13T00:50:40.009Z,98401.41
2023-04-13T00:52:12.450Z,98399.56
2023-04-13T00:53:46.329Z,98405.53
2023-04-13T00:55:22.084Z,98408.91
2023-04-13T00:56:57.271Z,98403.84
2023-04-13T00:58:31.104Z,98407.44
2023-04-13T01:00:10.245Z,98398.88
2023-04-13T01:01:50.625Z,98397.97
2023-04-13T01:03:26.265Z,98392.84
2023-04-13T01:04:59.865Z,98406.81
2023-04-13T01:06:42.036Z,98406.94
2023-04-13T01:08:23.317Z,98411.38
2023-04-13T01:10:05.407Z,98414.03
2023-04-13T01:11:44.943Z,98415.97
2023-04-13T01:13:22.452Z,98408.19
2023-04-13T01:15:06.566Z,98410.81
2023-04-13T01:16:45.836Z,98390.22
2023-04-13T01:18:21.162Z,98403.97
2023-04-13T01:20:01.576Z,98398.72
2023-04-13T01:21:39.587Z,98398.50
2023-04-13T01:23:26.521Z,98401.22
2023-04-13T01:25:16.925Z,98400.22
2023-04-13T01:26:57.504Z,98392.69
2023-04-13T01:28:32.419Z,98394.72
2023-04-13T01:30:06.467Z,98395.78
2023-04-13T02:59:18.257Z,98440.16
2023-04-13T03:00:52.146Z,98437.56
2023-04-13T03:02:30.224Z,98443.56
2023-04-13T03:04:04.516Z,98444.25
2023-04-13T03:05:39.109Z,98440.59
2023-04-13T03:07:14.804Z,98445.69
2023-04-13T03:08:52.553Z,98444.78
2023-04-13T03:10:28.441Z,98442.94
2023-04-13T03:12:07.589Z,98448.13
2023-04-13T03:13:41.210Z,98453.28
2023-04-13T03:15:16.464Z,98452.25
2023-04-13T03:16:49.818Z,98457.69
2023-04-13T03:18:23.909Z,98458.41
2023-04-13T03:19:57.710Z,98454.09
2023-04-13T03:21:30.561Z,98461.03
2023-04-13T03:23:09.915Z,98460.06
2023-04-13T03:24:43.831Z,98464.38
2023-04-13T03:26:19.327Z,98451.47
2023-04-13T03:27:53.210Z,98456.69
2023-04-13T03:29:28.967Z,98455.81
2023-04-13T03:31:04.212Z,98459.34
2023-04-13T03:32:40.834Z,98455.97
2023-04-13T03:34:14.242Z,98458.72
2023-04-13T03:35:49.561Z,98462.47
2023-04-13T03:37:33.714Z,98454.16
2023-04-13T03:39:17.182Z,98467.69
2023-04-13T03:40:50.572Z,98471.28
2023-04-13T03:42:24.016Z,98477.31
2023-04-13T03:44:03.228Z,98468.69
2023-04-13T03:45:36.451Z,98473.28
2023-04-13T03:47:16.813Z,98475.09
2023-04-13T03:48:49.981Z,98469.81
2023-04-13T03:50:27.086Z,98470.88
2023-04-13T03:52:00.297Z,98472.66
2023-04-13T03:53:37.963Z,98479.56
2023-04-13T03:55:11.957Z,98480.50
2023-04-13T03:56:47.426Z,98478.03
2023-04-13T03:58:19.929Z,98479.81
2023-04-13T03:59:53.198Z,98484.03
2023-04-13T04:01:35.682Z,98490.00
2023-04-13T04:03:09.855Z,98494.25
2023-04-13T04:04:54.790Z,98491.53
2023-04-13T04:06:28.523Z,98485.38
2023-04-13T04:08:14.423Z,98487.81
2023-04-13T04:09:48.056Z,98492.06
2023-04-13T04:11:23.059Z,98486.78
2023-04-13T04:12:57.510Z,98495.53
2023-04-13T04:14:32.117Z,98490.31
2023-04-13T04:16:12.495Z,98487.03
2023-04-13T04:17:51.337Z,98493.88
2023-04-13T04:19:26.027Z,98494.97
2023-04-13T04:20:59.585Z,98504.56
2023-04-13T04:22:34.827Z,98502.56
2023-04-13T04:24:08.974Z,98496.16
2023-04-13T04:25:45.425Z,98507.38
2023-04-13T04:27:19.429Z,98499.63
2023-04-13T04:29:02.067Z,98511.13
2023-04-13T04:30:36.797Z,98516.34
2023-04-13T04:32:11.844Z,98511.91
2023-04-13T04:33:47.350Z,98514.28
2023-04-13T04:35:26.320Z,98512.38
2023-04-13T04:37:03.536Z,98511.25
2023-04-13T04:38:41.549Z,98509.31
2023-04-13T04:40:16.751Z,98509.19
2023-04-13T04:41:54.246Z,98514.19
2023-04-13T04:43:27.314Z,98522.56
2023-04-13T04:45:01.730Z,98517.91
2023-04-13T04:46:38.845Z,98519.56
2023-04-13T04:48:16.112Z,98521.84
2023-04-13T04:49:52.123Z,98521.22
2023-04-13T04:51:28.152Z,98518.41
2023-04-13T04:53:01.941Z,98523.03
2023-04-13T04:54:35.368Z,98520.63
2023-04-13T04:56:09.523Z,98513.88
2023-04-13T04:57:49.938Z,98507.75
2023-04-13T04:59:25.056Z,98518.25
2023-04-13T05:01:03.851Z,98518.59
2023-04-13T05:02:37.435Z,98512.59
2023-04-13T05:04:14.453Z,98506.75
2023-04-13T05:05:49.614Z,98510.94
2023-04-13T05:07:32.975Z,98508.47
2023-04-13T05:09:06.261Z,98505.44
2023-04-13T05:10:45.519Z,98500.97
2023-04-13T05:12:19.219Z,98504.00
2023-04-13T05:13:56.638Z,98513.16
2023-04-13T05:15:31.388Z,98503.25
2023-04-13T05:17:05.475Z,98505.13
2023-04-13T05:18:47.326Z,98504.63
2023-04-13T05:20:37.973Z,98509.22
2023-04-13T05:22:14.937Z,98506.44
2023-04-13T05:23:57.160Z,98506.44
2023-04-13T05:25:30.429Z,98501.31
2023-04-13T05:27:09.846Z,98495.22
2023-04-13T05:28:43.308Z,98498.47
2023-04-13T05:30:15.994Z,98503.78
2023-04-13T05:31:50.224Z,98504.63
2023-04-13T05:33:24.675Z,98503.97
2023-04-13T05:35:01.635Z,98508.06
2023-04-13T05:36:35.066Z,98508.34
2023-04-13T05:38:12.633Z,98515.66
2023-04-13T05:39:48.175Z,98519.56
2023-04-13T05:41:24.737Z,98511.13
2023-04-13T05:42:58.345Z,98518.25
2023-04-13T05:44:35.554Z,98521.25
2023-04-13T05:46:08.910Z,98522.16
2023-04-13T05:47:42.346Z,98519.56
2023-04-13T05:49:19.202Z,98521.94
2023-04-13T05:50:52.359Z,98531.84
2023-04-13T05:52:25.960Z,98519.19
2023-04-13T05:53:59.196Z,98524.53
2023-04-13T05:55:34.479Z,98524.09
2023-04-13T05:57:11.538Z,98515.41
2023-04-13T05:58:48.542Z,98527.66
2023-04-13T06:00:28.714Z,98517.44
2023-04-13T06:02:09.739Z,98528.53
2023-04-13T06:03:45.022Z,98519.34
2023-04-13T06:05:19.964Z,98520.72
2023-04-13T06:06:53.267Z,98515.81
2023-04-13T06:08:32.770Z,98517.56
2023-04-13T06:10:07.208Z,98524.97
2023-04-13T06:11:41.902Z,98511.94
2023-04-13T06:13:15.142Z,98510.91
2023-04-13T06:14:48.774Z,98508.38
2023-04-13T06:16:23.405Z,98516.56
2023-04-13T06:17:57.234Z,98503.59
2023-04-13T06:19:30.515Z,98497.72
2023-04-13T06:21:05.736Z,98494.81
2023-04-13T06:22:39.078Z,98495.56
2023-04-13T06:24:12.329Z,98496.50
2023-04-13T06:25:46.103Z,98504.03
2023-04-13T06:27:24.558Z,98502.09
2023-04-13T06:28:58.279Z,98500.16
2023-04-13T06:30:31.968Z,98503.06
2023-04-13T06:32:09.498Z,98498.72
2023-04-13T06:33:43.670Z,98501.38
2023-04-13T06:35:17.832Z,98500.47
2023-04-13T06:36:54.208Z,98511.72
2023-04-13T06:38:29.507Z,98498.09
2023-04-13T06:40:12.764Z,98498.84
2023-04-13T06:41:52.639Z,98502.75
2023-04-13T06:44:05.804Z,98504.69
2023-04-13T06:45:43.710Z,98503.78
2023-04-13T06:47:24.631Z,98504.41
2023-04-13T06:48:58.747Z,98506.44
2023-04-13T06:50:33.828Z,98495.84
2023-04-13T06:52:10.019Z,98498.91
2023-04-13T06:53:43.237Z,98499.78
2023-04-13T06:55:17.519Z,98503.59
2023-04-13T06:56:50.764Z,98495.09
2023-04-13T07:00:29.740Z,98500.38
2023-04-13T07:02:05.216Z,98493.41
2023-04-13T07:03:38.690Z,98490.03
2023-04-13T07:05:13.558Z,98487.13
2023-04-13T07:06:50.151Z,98496.94
2023-04-13T07:08:23.544Z,98490.50
2023-04-13T07:09:57.862Z,98490.91
2023-04-13T07:11:32.496Z,98485.53
2023-04-13T07:13:07.618Z,98480.19
2023-04-13T07:14:42.095Z,98481.91
2023-04-13T07:16:19.597Z,98477.25
2023-04-13T07:17:53.276Z,98477.41
2023-04-13T07:19:29.547Z,98476.84
2023-04-13T07:21:04.572Z,98474.06
2023-04-13T07:22:46.890Z,98479.31
2023-04-13T07:24:20.575Z,98473.16
2023-04-13T07:25:54.617Z,98477.66
2023-04-13T07:27:33.124Z,98463.50
2023-04-13T07:29:13.739Z,98468.31
2023-04-13T07:30:51.726Z,98453.56
2023-04-13T07:32:31.464Z,98461.75
2023-04-13T07:34:05.976Z,98450.97
2023-04-13T07:35:45.497Z,98455.06
2023-04-13T07:37:21.561Z,98453.13
2023-04-13T07:38:55.459Z,98448.75
2023-04-13T07:40:29.065Z,98447.13
2023-04-13T07:42:05.325Z,98438.22
2023-04-13T07:43:44.642Z,98452.78
2023-04-13T07:45:22.729Z,98450.91
2023-04-13T07:46:57.600Z,98450.09
2023-04-13T07:48:34.357Z,98451.25
2023-04-13T07:50:13.447Z,98431.03
2023-04-13T07:51:47.638Z,98439.75
2023-04-13T07:53:22.198Z,98438.13
2023-04-13T07:54:55.631Z,98442.63
2023-04-13T07:56:31.218Z,98434.28
2023-04-13T07:58:06.592Z,98443.41
2023-04-13T07:59:40.209Z,98426.81
2023-04-13T08:01:14.471Z,98438.38
2023-04-13T08:02:47.966Z,98436.41
2023-04-13T08:04:27.822Z,98437.50
2023-04-13T08:06:01.975Z,98451.41
2023-04-13T08:07:35.682Z,98444.84
2023-04-13T08:09:09.700Z,98444.75
2023-04-13T08:10:42.810Z,98445.59
2023-04-13T08:12:16.813Z,98451.16
2023-04-13T08:13:50.160Z,98448.28
2023-04-13T08:15:24.280Z,98450.34
2023-04-13T08:16:59.968Z,98449.06
2023-04-13T08:18:34.081Z,98448.81
2023-04-13T08:20:11.119Z,98443.31
2023-04-13T08:21:47.581Z,98440.84
2023-04-13T08:23:21.519Z,98435.72
2023-04-13T08:24:54.686Z,98438.69
2023-04-13T08:26:29.567Z,98442.69
2023-04-13T08:28:06.339Z,98443.03
2023-04-13T08:29:39.484Z,98436.38
2023-04-13T08:31:13.365Z,98425.88
2023-04-13T08:32:49.516Z,98432.06
2023-04-13T08:34:23.407Z,98423.53
2023-04-13T08:35:59.828Z,98433.16
2023-04-13T08:37:35.122Z,98428.53
2023-04-13T08:39:10.740Z,98426.28
2023-04-13T08:40:49.496Z,98420.16
2023-04-13T08:42:29.363Z,98414.97
2023-04-13T08:44:05.837Z,98417.16
2023-04-13T08:45:43.807Z,98415.91
2023-04-13T08:47:17.460Z,98409.63
2023-04-13T08:49:05.371Z,98409.97
2023-04-13T08:50:53.063Z,98402.38
2023-04-13T08:52:28.712Z,98396.56
2023-04-13T08:54:02.667Z,98398.88
2023-04-13T08:55:45.840Z,98399.97
2023-04-13T08:57:21.374Z,98397.97
2023-04-13T08:58:58.472Z,98399.16
2023-04-13T09:00:33.620Z,98395.34
2023-04-13T09:02:07.622Z,98403.06
2023-04-13T09:03:54.287Z,98401.31
2023-04-13T09:05:30.850Z,98395.50
2023-04-13T09:07:10.032Z,98405.28
2023-04-13T09:08:47.490Z,98399.72
2023-04-13T09:10:21.976Z,98385.91
2023-04-13T09:11:55.110Z,98396.09
2023-04-13T09:13:28.290Z,98381.19
2023-04-13T09:15:03.165Z,98398.97
2023-04-13T09:16:41.664Z,98395.78
2023-04-13T09:18:21.267Z,98399.09
2023-04-13T09:20:12.763Z,98401.66
2023-04-13T09:21:46.809Z,98393.97
2023-04-13T09:23:20.045Z,98386.84
2023-04-13T09:24:54.623Z,98389.03
2023-04-13T09:26:27.905Z,98383.63
2023-04-13T09:28:03.042Z,98388.75
2023-04-13T09:29:36.548Z,98391.25
2023-04-13T09:31:14.157Z,98387.66
2023-04-13T09:32:47.411Z,98383.94
2023-04-13T09:34:28.640Z,98374.47
2023-04-13T09:36:11.060Z,98373.06
2023-04-13T09:37:48.001Z,98378.63
2023-04-13T09:39:26.190Z,98374.69
2023-04-13T09:41:02.113Z,98372.81
2023-04-13T09:42:37.091Z,98373.31
2023-04-13T09:44:18.811Z,98366.94
2023-04-13T09:45:52.079Z,98359.31
2023-04-13T09:47:25.604Z,98359.41
2023-04-13T09:49:07.865Z,98358.75
2023-04-13T09:50:41.212Z,98363.91
2023-04-13T09:52:20.498Z,98353.47
2023-04-13T09:53:53.959Z,98353.75
2023-04-13T09:55:27.962Z,98352.75
2023-04-13T09:57:05.127Z,98345.44
2023-04-13T09:58:42.890Z,98345.75
2023-04-13T10:00:21.247Z,98342.06
2023-04-13T10:01:55.322Z,98340.91
2023-04-13T10:03:29.331Z,98349.91
2023-04-13T10:05:04.028Z,98339.13
2023-04-13T10:06:40.483Z,98344.34
2023-04-13T10:08:15.214Z,98341.94
2023-04-13T10:09:51.310Z,98339.34
2023-04-13T10:11:26.409Z,98345.47
2023-04-13T10:13:06.892Z,98341.81
2023-04-13T10:14:43.325Z,98334.03
2023-04-13T10:16:40.276Z,98345.38
2023-04-13T10:18:24.122Z,98337.81
2023-04-13T10:20:07.895Z,98336.56
2023-04-13T10:21:45.264Z,98333.34
2023-04-13T10:23:19.672Z,98328.59
2023-04-13T10:24:53.784Z,98323.88
2023-04-13T10:26:33.538Z,98317.16
2023-04-13T10:28:08.212Z,98314.94
2023-04-13T10:29:41.871Z,98315.31
2023-04-13T10:31:15.242Z,98322.56
2023-04-13T10:32:48.559Z,98328.38
2023-04-13T10:34:26.518Z,98320.03
2023-04-13T10:36:01.637Z,98323.09
2023-04-13T10:37:34.875Z,98327.47
2023-04-13T10:39:08.560Z,98297.00
2023-04-13T10:40:46.518Z,98319.69
2023-04-13T10:42:19.781Z,98314.00
2023-04-13T10:44:03.819Z,98320.22
2023-04-13T10:45:37.915Z,98322.44
2023-04-13T10:47:11.582Z,98312.53
2023-04-13T10:48:55.032Z,98313.22
2023-04-13T10:50:28.449Z,98301.78
2023-04-13T10:52:01.842Z,98299.09
2023-04-13T10:53:35.373Z,98302.88
2023-04-13T10:55:11.552Z,98299.19
2023-04-13T10:56:45.068Z,98297.16
2023-04-13T10:58:18.620Z,98298.78
2023-04-13T10:59:58.048Z,98291.53
2023-04-13T11:01:32.410Z,98297.25
2023-04-13T11:03:06.645Z,98293.28
2023-04-13T11:04:42.119Z,98295.97
2023-04-13T11:06:16.651Z,98294.53
2023-04-13T11:07:55.076Z,98290.09
2023-04-13T11:09:28.772Z,98292.91
2023-04-13T11:11:01.976Z,98288.91
2023-04-13T11:12:35.326Z,98290.75
2023-04-13T11:14:08.585Z,98281.03
2023-04-13T11:15:43.508Z,98289.22
2023-04-13T11:17:17.987Z,98282.28
2023-04-13T11:19:02.033Z,98288.06
2023-04-13T11:20:36.315Z,98292.28
2023-04-13T11:22:13.247Z,98287.75
2023-04-13T11:23:53.874Z,98286.53
2023-04-13T11:25:28.002Z,98281.75
2023-04-13T11:27:01.315Z,98284.97
2023-04-13T11:28:40.228Z,98284.97
2023-04-13T11:30:14.028Z,98277.59
2023-04-13T11:31:48.904Z,98279.69
2023-04-13T11:33:26.632Z,98281.06
2023-04-13T11:35:08.304Z,98279.47
2023-04-13T11:36:44.813Z,98268.94
2023-04-13T11:38:18.823Z,98265.16
2023-04-13T11:39:52.013Z,98263.84
2023-04-13T11:41:27.362Z,98270.56
2023-04-13T11:43:01.463Z,98258.09
2023-04-13T11:44:36.010Z,98255.19
2023-04-13T11:46:12.906Z,98251.88
2023-04-13T11:47:48.349Z,98256.19
2023-04-13T11:49:21.872Z,98264.13
2023-04-13T11:50:56.762Z,98261.97
2023-04-13T11:52:32.919Z,98264.03
2023-04-13T11:54:07.190Z,98255.63
2023-04-13T11:57:18.264Z,98253.41
2023-04-13T11:58:53.251Z,98272.41
2023-04-13T12:00:28.517Z,98258.56
2023-04-13T12:02:09.626Z,98259.09
2023-04-13T12:04:04.107Z,98250.69
2023-04-13T12:05:47.079Z,98248.41
2023-04-13T12:07:21.534Z,98239.66
2023-04-13T12:09:08.996Z,98255.22
2023-04-13T12:11:02.290Z,98249.16
2023-04-13T12:14:49.685Z,98237.88
2023-04-13T12:16:55.454Z,98229.94
2023-04-13T12:18:24.835Z,98236.91
2023-04-13T12:20:04.916Z,98235.63
2023-04-13T12:21:40.342Z,98233.66
2023-04-13T12:23:23.266Z,98234.00
2023-04-13T12:24:57.567Z,98232.00
2023-04-13T12:27:16.347Z,98232.06
2023-04-13T12:28:34.607Z,98242.56
2023-04-13T12:30:12.431Z,98235.13
2023-04-13T12:31:45.751Z,98240.22
2023-04-13T12:33:19.228Z,98234.09
2023-04-13T12:34:52.874Z,98230.69
2023-04-13T12:36:31.637Z,98230.47
2023-04-13T12:38:05.244Z,98220.06
2023-04-13T12:39:38.433Z,98229.59
2023-04-13T12:41:13.244Z,98227.19
2023-04-13T12:42:47.936Z,98215.38
2023-04-13T12:44:21.108Z,98222.88
2023-04-13T12:45:54.991Z,98227.25
2023-04-13T12:47:28.325Z,98225.72
2023-04-13T12:49:02.121Z,98218.00
2023-04-13T12:50:35.784Z,98228.06
2023-04-13T12:52:10.485Z,98224.38
2023-04-13T12:53:43.808Z,98219.69
2023-04-13T12:55:18.367Z,98222.06
2023-04-13T12:56:52.127Z,98220.06
2023-04-13T12:58:25.403Z,98219.47
2023-04-13T12:59:58.742Z,98215.81
2023-04-13T13:01:32.041Z,98219.91
2023-04-13T13:03:13.659Z,98227.31
2023-04-13T13:04:47.962Z,98219.56
2023-04-13T13:06:21.465Z,98219.56
2023-04-13T13:07:56.007Z,98214.41
2023-04-13T13:09:29.270Z,98212.59
2023-04-13T13:11:02.720Z,98219.09
2023-04-13T13:12:36.109Z,98216.41
2023-04-13T13:14:11.093Z,98221.16
2023-04-13T13:15:45.047Z,98210.91
2023-04-13T13:17:19.329Z,98219.69
2023-04-13T13:18:53.574Z,98209.09
2023-04-13T13:20:26.889Z,98209.94
2023-04-13T13:22:00.947Z,98212.81
2023-04-13T13:23:35.668Z,98201.41
2023-04-13T13:25:10.484Z,98205.25
2023-04-13T13:27:05.666Z,98208.50
2023-04-13T13:28:37.030Z,98205.72
2023-04-13T13:30:10.927Z,98204.72
2023-04-13T13:31:44.079Z,98206.97
2023-04-13T13:33:17.414Z,98202.00
2023-04-13T13:34:50.679Z,98205.03
2023-04-13T13:36:24.156Z,98208.81
2023-04-13T13:37:57.378Z,98197.38
2023-04-13T13:39:32.342Z,98193.31
2023-04-13T13:41:05.931Z,98193.50
2023-04-13T13:42:50.535Z,98201.13
2023-04-13T13:44:24.448Z,98194.72
2023-04-13T13:45:57.945Z,98191.31
2023-04-13T13:47:32.020Z,98205.81
2023-04-13T13:49:05.797Z,98194.38
2023-04-13T13:50:59.320Z,98192.63
2023-04-13T13:52:33.869Z,98190.34
2023-04-13T13:54:09.529Z,98196.09
2023-04-13T13:55:44.184Z,98190.34
2023-04-13T13:57:17.569Z,98182.47
2023-04-13T13:58:50.739Z,98182.94
2023-04-13T14:00:24.418Z,98182.75
2023-04-13T14:01:58.452Z,98185.09
2023-04-13T14:03:32.620Z,98181.59
2023-04-13T14:05:06.436Z,98180.75
2023-04-13T14:06:39.933Z,98180.38
2023-04-13T14:08:13.418Z,98182.78
2023-04-13T14:09:46.714Z,98188.16
2023-04-13T14:11:22.417Z,98176.16
2023-04-13T14:12:55.845Z,98179.19
2023-04-13T14:14:29.146Z,98178.31
2023-04-13T14:16:02.517Z,98182.06
2023-04-13T14:17:36.326Z,98178.44
2023-04-13T14:19:09.813Z,98174.09
2023-04-13T14:20:43.522Z,98176.81
2023-04-13T14:22:16.892Z,98174.78
2023-04-13T14:23:50.607Z,98165.38
2023-04-13T14:25:24.173Z,98175.69
2023-04-13T14:26:58.820Z,98164.25
2023-04-13T14:28:32.660Z,98155.94
2023-04-13T14:30:07.023Z,98167.78
2023-04-13T14:31:40.313Z,98166.47
2023-04-13T14:33:14.773Z,98165.16
2023-04-13T14:34:48.052Z,98165.03
2023-04-13T14:36:21.405Z,98160.50
2023-04-13T14:37:54.755Z,98161.50
2023-04-13T14:39:27.859Z,98155.41
2023-04-13T14:41:01.313Z,98151.34
2023-04-13T14:42:36.068Z,98155.06
2023-04-13T14:44:09.535Z,98159.38
2023-04-13T14:45:42.843Z,98156.47
2023-04-13T14:47:16.723Z,98160.97
2023-04-13T14:48:49.838Z,98161.00
2023-04-13T14:50:23.638Z,98158.00
2023-04-13T14:51:56.938Z,98159.31
2023-04-13T14:53:31.507Z,98168.06
2023-04-13T14:55:06.021Z,98158.16
2023-04-13T14:56:39.360Z,98163.28
2023-04-13T14:58:14.095Z,98153.91
2023-04-13T14:59:47.434Z,98147.53
2023-04-13T15:01:22.433Z,98164.78
2023-04-13T15:02:56.180Z,98165.16
2023-04-13T15:04:29.935Z,98156.72
2023-04-13T15:06:05.330Z,98155.94
2023-04-13T15:07:39.331Z,98156.47
2023-04-13T15:09:13.143Z,98160.00
2023-04-13T15:10:46.605Z,98153.59
2023-04-13T15:12:20.302Z,98146.34
2023-04-13T15:13:54.870Z,98149.28
2023-04-13T15:15:28.258Z,98143.00
2023-04-13T15:17:03.163Z,98149.81
2023-04-13T15:18:36.666Z,98151.72
2023-04-13T15:20:12.265Z,98145.94
2023-04-13T15:21:45.752Z,98147.00
2023-04-13T15:23:20.010Z,98112.88
2023-04-13T15:24:53.701Z,98143.28
2023-04-13T15:26:27.370Z,98139.88
2023-04-13T15:28:00.714Z,98141.91
2023-04-13T15:29:37.391Z,98138.03
2023-04-13T15:31:10.825Z,98139.88
2023-04-13T15:32:44.025Z,98140.22
2023-04-13T15:34:17.211Z,98142.94
2023-04-13T15:35:51.918Z,98137.16
2023-04-13T15:37:25.194Z,98127.38
2023-04-13T15:38:59.182Z,98133.13
2023-04-13T15:40:35.297Z,98135.63
2023-04-13T15:42:08.456Z,98126.94
2023-04-13T15:43:44.157Z,98131.75
2023-04-13T15:45:19.379Z,98125.13
2023-04-13T15:46:52.747Z,98130.88
2023-04-13T15:48:26.681Z,98139.72
2023-04-13T15:49:59.925Z,98138.03
2023-04-13T15:51:33.473Z,98135.16
2023-04-13T15:53:06.893Z,98131.25
2023-04-13T15:54:40.190Z,98130.19
2023-04-13T15:56:13.442Z,98136.84
2023-04-13T15:57:47.225Z,98140.59
2023-04-13T15:59:20.844Z,98141.91
2023-04-13T16:01:06.563Z,98137.84
2023-04-13T16:02:40.801Z,98137.84
2023-04-13T16:04:14.612Z,98135.78
2023-04-13T16:05:50.225Z,98147.31
2023-04-13T16:07:23.625Z,98146.63
2023-04-13T16:08:57.128Z,98151.47
2023-04-13T16:10:30.942Z,98152.94
2023-04-13T16:12:08.316Z,98147.22
2023-04-13T16:13:49.541Z,98152.22
2023-04-13T16:15:24.564Z,98157.16
2023-04-13T16:17:00.820Z,98156.94
2023-04-13T16:18:35.976Z,98151.09
2023-04-13T16:20:18.126Z,98159.06
2023-04-13T16:21:53.787Z,98169.34
2023-04-13T16:23:27.577Z,98171.38
2023-04-13T16:25:01.045Z,98175.41
2023-04-13T16:26:34.423Z,98166.22
2023-04-13T16:28:10.262Z,98171.19
2023-04-13T16:29:43.867Z,98168.38
2023-04-13T16:31:17.549Z,98171.50
2023-04-13T16:32:52.320Z,98171.25
2023-04-13T16:34:28.074Z,98171.81
2023-04-13T16:36:01.293Z,98177.81
2023-04-13T16:37:34.776Z,98173.84
2023-04-13T16:39:12.017Z,98176.38
2023-04-13T16:40:46.501Z,98184.19
2023-04-13T16:42:19.767Z,98182.25
2023-04-13T16:43:53.049Z,98169.09
2023-04-13T16:45:26.392Z,98186.63
2023-04-13T16:46:59.616Z,98179.84
2023-04-13T16:48:34.456Z,98189.97
2023-04-13T16:50:09.870Z,98181.78
2023-04-13T16:51:43.322Z,98191.13
2023-04-13T16:53:18.733Z,98182.66
2023-04-13T16:54:52.044Z,98188.56
2023-04-13T16:56:30.359Z,98183.19
2023-04-13T16:58:03.497Z,98185.88
2023-04-13T16:59:36.860Z,98182.03
2023-04-13T17:01:10.252Z,98191.34
2023-04-13T17:02:44.288Z,98191.91
2023-04-13T17:04:19.189Z,98183.69
2023-04-13T17:05:52.509Z,98191.59
2023-04-13T17:07:28.180Z,98192.13
2023-04-13T17:09:01.854Z,98189.25
2023-04-13T17:10:36.383Z,98187.22
2023-04-13T17:12:09.574Z,98192.03
2023-04-13T17:13:43.059Z,98189.06
2023-04-13T17:15:16.354Z,98193.13
2023-04-13T17:16:49.622Z,98199.00
2023-04-13T17:18:23.092Z,98201.25
2023-04-13T17:19:57.816Z,98199.94
2023-04-13T17:21:31.066Z,98202.31
2023-04-13T17:23:04.262Z,98212.44
2023-04-13T17:24:37.705Z,98210.44
2023-04-13T17:26:11.336Z,98214.88
2023-04-13T17:27:44.546Z,98208.84
2023-04-13T17:29:17.783Z,98224.00
2023-04-13T17:30:50.952Z,98219.41
2023-04-13T17:32:24.705Z,98230.16
2023-04-13T17:33:57.849Z,98229.69
2023-04-13T17:35:32.825Z,98226.53
2023-04-13T17:37:07.560Z,98225.09
2023-04-13T17:38:41.063Z,98216.88
2023-04-13T17:40:14.522Z,98223.00
2023-04-13T17:41:47.695Z,98220.09
2023-04-13T17:43:20.926Z,98226.19
2023-04-13T17:44:54.237Z,98224.75
2023-04-13T17:46:27.586Z,98228.88
2023-04-13T17:48:01.099Z,98234.97
2023-04-13T17:49:34.588Z,98237.41
2023-04-13T17:51:11.835Z,98225.75
2023-04-13T17:52:45.087Z,98217.97
2023-04-13T17:54:18.456Z,98228.91
2023-04-13T17:55:51.661Z,98221.75
2023-04-13T17:57:24.849Z,98229.03
2023-04-13T17:58:58.318Z,98226.47
2023-04-13T18:00:31.889Z,98230.22
2023-04-13T18:02:05.268Z,98241.41
2023-04-13T18:03:39.883Z,98241.66
2023-04-13T18:05:15.510Z,98239.34
2023-04-13T18:06:50.151Z,98240.91
2023-04-13T18:08:23.866Z,98238.84
2023-04-13T18:09:57.321Z,98239.09
2023-04-13T18:11:30.694Z,98235.94
2023-04-13T18:13:04.163Z,98219.75
2023-04-13T18:14:37.307Z,98224.50
2023-04-13T18:16:13.989Z,98230.06
2023-04-13T18:17:47.754Z,98239.03
2023-04-13T18:19:21.026Z,98227.09
2023-04-13T18:20:54.438Z,98235.22
2023-04-13T18:22:29.436Z,98236.31
2023-04-13T18:24:03.102Z,98231.94
2023-04-13T18:25:36.640Z,98224.78
2023-04-13T18:27:09.764Z,98226.72
2023-04-13T18:28:43.062Z,98222.50
2023-04-13T18:30:16.927Z,98220.75
2023-04-13T18:31:50.287Z,98220.75
2023-04-13T18:33:23.642Z,98228.06
2023-04-13T18:34:58.062Z,98229.97
2023-04-13T18:36:31.385Z,98227.31
2023-04-13T18:38:05.939Z,98226.59
2023-04-13T18:39:39.618Z,98218.06
2023-04-13T18:41:14.139Z,98235.78
2023-04-13T18:42:50.050Z,98232.47
2023-04-13T18:44:23.288Z,98232.00
2023-04-13T18:45:56.517Z,98234.13
2023-04-13T18:47:30.046Z,98225.53
2023-04-13T18:49:03.266Z,98228.44
2023-04-13T18:50:36.728Z,98231.69
2023-04-13T18:52:09.847Z,98233.44
2023-04-13T18:53:45.709Z,98240.94
2023-04-13T18:55:19.467Z,98237.75
2023-04-13T18:56:52.671Z,98231.50
2023-04-13T18:58:25.781Z,98250.00
2023-04-13T18:59:59.194Z,98242.31
2023-04-13T19:01:32.600Z,98244.69
2023-04-13T19:03:05.915Z,98247.78
2023-04-13T19:04:40.048Z,98256.00
2023-04-13T19:06:13.872Z,98245.34
2023-04-13T19:07:57.254Z,98245.25
2023-04-13T19:09:31.847Z,98254.78
2023-04-13T19:11:05.380Z,98251.25
2023-04-13T19:12:38.847Z,98259.13
2023-04-13T19:14:12.272Z,98255.81
2023-04-13T19:15:45.427Z,98262.63
2023-04-13T19:17:20.863Z,98262.38
2023-04-13T19:18:58.762Z,98265.03
2023-04-13T19:20:32.208Z,98252.63
2023-04-13T19:22:05.374Z,98252.88
2023-04-13T19:23:40.260Z,98255.38
2023-04-13T19:25:16.029Z,98260.25
2023-04-13T19:26:51.276Z,98254.63
2023-04-13T19:28:24.475Z,98256.03
2023-04-13T19:29:58.037Z,98260.94
2023-04-13T19:31:31.380Z,98258.81
2023-04-13T19:33:04.960Z,98247.00
2023-04-13T19:34:38.450Z,98254.34
2023-04-13T19:36:11.766Z,98252.22
2023-04-13T19:37:45.027Z,98252.22
2023-04-13T19:39:18.141Z,98254.44
2023-04-13T19:40:52.741Z,98249.75
2023-04-13T19:42:26.504Z,98254.22
2023-04-13T19:44:01.358Z,98252.22
2023-04-13T19:45:35.566Z,98251.56
2023-04-13T19:47:08.779Z,98242.53
2023-04-13T19:48:42.379Z,98254.13
2023-04-13T19:50:16.723Z,98250.94
2023-04-13T19:51:49.899Z,98252.22
2023-04-13T19:53:23.073Z,98241.56
2023-04-13T19:54:56.330Z,98249.84
2023-04-13T19:56:31.830Z,98249.22
2023-04-13T19:58:05.087Z,98254.53
2023-04-13T19:59:39.062Z,98242.41
2023-04-13T20:01:13.600Z,98249.81
2023-04-13T20:02:48.056Z,98252.63
2023-04-13T20:04:21.346Z,98250.22
2023-04-13T20:05:54.948Z,98245.09
2023-04-13T20:07:28.160Z,98250.44
2023-04-13T20:09:13.428Z,98237.91
2023-04-13T20:10:46.622Z,98240.75
2023-04-13T20:12:21.639Z,98245.22
2023-04-13T20:13:54.826Z,98242.75
2023-04-13T20:15:29.850Z,98235.31